createdAt,value
2018-06-07T00:00:26.539Z,47.30
2018-06-07T00:02:55.124Z,47.30
2018-06-07T00:05:23.630Z,47.30
2018-06-07T00:07:52.153Z,47.40
2018-06-07T00:10:20.652Z,47.40
2018-06-07T00:12:49.216Z,47.30
2018-06-07T00:15:17.769Z,47.70
2018-06-07T00:17:46.332Z,47.30
2018-06-07T00:20:14.828Z,47.40
2018-06-07T00:22:43.372Z,47.40
2018-06-07T00:25:11.841Z,47.40
2018-06-07T00:27:40.345Z,47.40
2018-06-07T00:30:08.872Z,47.40
2018-06-07T00:32:37.460Z,48.10
2018-06-07T00:35:06.070Z,47.30
2018-06-07T00:37:34.633Z,47.30
2018-06-07T00:40:03.163Z,47.40
2018-06-07T00:42:31.695Z,47.40
2018-06-07T00:45:00.257Z,47.40
2018-06-07T00:47:28.761Z,47.40
2018-06-07T00:49:57.335Z,47.40
2018-06-07T00:52:25.907Z,47.40
2018-06-07T00:54:54.450Z,47.40
2018-06-07T00:57:23.037Z,47.40
2018-06-07T00:59:51.680Z,47.50
2018-06-07T01:02:20.208Z,47.50
2018-06-07T01:04:48.783Z,47.50
2018-06-07T01:09:45.568Z,47.60
2018-06-07T01:12:14.128Z,47.50
2018-06-07T01:14:42.645Z,47.50
2018-06-07T01:17:11.159Z,47.50
2018-06-07T01:19:39.713Z,47.50
2018-06-07T01:22:08.322Z,47.50
2018-06-07T01:24:36.859Z,47.40
2018-06-07T01:27:06.293Z,47.50
2018-06-07T01:32:50.470Z,47.40
2018-06-07T01:35:18.947Z,47.40
2018-06-07T01:37:58.967Z,47.40
2018-06-07T01:40:27.510Z,47.40
2018-06-07T01:42:55.975Z,47.40
2018-06-07T01:45:24.478Z,47.30
2018-06-07T01:47:52.916Z,47.30
2018-06-07T01:50:21.391Z,47.30
2018-06-07T01:52:49.852Z,47.30
2018-06-07T01:55:18.369Z,47.30
2018-06-07T01:57:46.814Z,47.40
2018-06-07T02:00:15.419Z,47.40
2018-06-07T02:02:43.872Z,47.40
2018-06-07T02:05:12.358Z,47.20
2018-06-07T02:07:40.795Z,47.40
2018-06-07T02:10:09.278Z,47.50
2018-06-07T02:12:37.756Z,47.40
2018-06-07T02:15:06.475Z,47.50
2018-06-07T02:17:34.939Z,47.50
2018-06-07T02:20:03.436Z,47.50
2018-06-07T02:22:31.880Z,47.50
2018-06-07T02:25:00.371Z,47.50
2018-06-07T02:27:28.846Z,47.60
2018-06-07T02:29:57.323Z,47.50
2018-06-07T02:32:25.866Z,47.50
2018-06-07T02:34:54.359Z,47.60
2018-06-07T02:37:22.830Z,47.60
2018-06-07T02:39:51.305Z,47.70
2018-06-07T02:42:20.112Z,47.70
2018-06-07T02:44:48.583Z,47.80
2018-06-07T02:49:45.238Z,47.90
2018-06-07T02:52:13.723Z,47.80
2018-06-07T02:54:42.190Z,47.80
2018-06-07T02:57:10.677Z,47.90
2018-06-07T02:59:39.179Z,47.90
2018-06-07T03:02:07.700Z,47.90
2018-06-07T03:04:36.154Z,47.90
2018-06-07T03:07:04.776Z,47.90
2018-06-07T03:09:33.221Z,48.00
2018-06-07T03:12:01.694Z,47.90
2018-06-07T03:14:30.271Z,47.90
2018-06-07T03:16:58.750Z,47.90
2018-06-07T03:19:27.242Z,47.90
2018-06-07T03:21:55.724Z,47.90
2018-06-07T03:24:24.219Z,47.90
2018-06-07T03:26:52.673Z,47.90
2018-06-07T03:29:21.226Z,47.90
2018-06-07T03:31:49.696Z,47.90
2018-06-07T03:34:18.210Z,47.80
2018-06-07T03:36:46.781Z,47.80
2018-06-07T03:39:15.278Z,47.80
2018-06-07T03:41:43.755Z,47.80
2018-06-07T03:46:40.461Z,47.90
2018-06-07T03:49:08.934Z,48.00
2018-06-07T03:51:37.417Z,48.00
2018-06-07T03:54:05.864Z,47.90
2018-06-07T03:56:34.341Z,47.90
2018-06-07T03:59:02.771Z,47.90
2018-06-07T04:01:31.323Z,47.90
2018-06-07T04:03:59.816Z,47.80
2018-06-07T04:06:28.299Z,47.80
2018-06-07T04:08:56.781Z,48.40
2018-06-07T04:11:25.294Z,48.40
2018-06-07T04:13:53.781Z,47.90
2018-06-07T04:16:22.307Z,47.90
2018-06-07T04:18:51.638Z,47.80
2018-06-07T04:21:20.188Z,47.90
2018-06-07T04:23:48.649Z,47.90
2018-06-07T04:26:17.099Z,47.90
2018-06-07T04:28:45.595Z,48.00
2018-06-07T04:31:14.074Z,48.20
2018-06-07T04:33:42.559Z,48.20
2018-06-07T04:36:11.335Z,48.10
2018-06-07T04:38:40.112Z,47.90
2018-06-07T04:41:08.557Z,47.80
2018-06-07T04:43:37.042Z,47.50
2018-06-07T04:46:05.672Z,47.30
2018-06-07T04:48:34.177Z,47.20
2018-06-07T04:51:02.790Z,47.30
2018-06-07T04:53:31.275Z,47.50
2018-06-07T04:58:27.953Z,47.50
2018-06-07T05:00:56.584Z,47.50
2018-06-07T05:03:25.107Z,47.50
2018-06-07T05:05:53.639Z,47.50
2018-06-07T05:08:22.154Z,47.50
2018-06-07T05:10:50.607Z,47.60
2018-06-07T05:13:19.413Z,47.60
2018-06-07T05:15:47.940Z,47.60
2018-06-07T05:18:16.455Z,47.70
2018-06-07T05:20:44.896Z,47.80
2018-06-07T05:23:13.407Z,47.70
2018-06-07T05:28:10.043Z,47.70
2018-06-07T05:30:38.513Z,47.70
2018-06-07T05:33:07.062Z,47.70
2018-06-07T05:35:35.583Z,47.70
2018-06-07T05:38:04.027Z,47.70
2018-06-07T05:40:33.172Z,47.70
2018-06-07T05:43:01.667Z,47.70
2018-06-07T05:45:30.147Z,47.60
2018-06-07T05:47:58.604Z,47.60
2018-06-07T05:50:27.107Z,47.60
2018-06-07T05:52:55.625Z,47.40
2018-06-07T05:55:24.204Z,47.50
2018-06-07T05:57:52.689Z,47.50
2018-06-07T06:00:21.254Z,47.50
2018-06-07T06:02:49.703Z,47.50
2018-06-07T06:05:18.248Z,47.30
2018-06-07T06:07:46.680Z,47.20
2018-06-07T06:10:15.200Z,47.30
2018-06-07T06:12:43.692Z,47.30
2018-06-07T06:15:12.227Z,47.20
2018-06-07T06:17:40.677Z,47.20
2018-06-07T06:20:09.163Z,47.20
2018-06-07T06:22:37.664Z,47.20
2018-06-07T06:25:06.183Z,47.10
2018-06-07T06:27:34.727Z,47.10
2018-06-07T06:30:03.222Z,47.20
2018-06-07T06:32:31.746Z,47.20
2018-06-07T06:35:00.229Z,47.30
2018-06-07T06:37:46.894Z,47.40
2018-06-07T06:40:15.369Z,47.50
2018-06-07T06:42:43.873Z,47.70
2018-06-07T06:45:12.418Z,47.60
2018-06-07T06:47:40.941Z,47.70
2018-06-07T06:50:09.393Z,47.70
2018-06-07T06:52:37.888Z,47.70
2018-06-07T06:55:06.536Z,47.80
2018-06-07T06:57:34.995Z,47.90
2018-06-07T07:00:03.521Z,48.10
2018-06-07T07:02:32.028Z,48.70
2018-06-07T07:05:00.523Z,48.00
2018-06-07T07:07:28.946Z,47.90
2018-06-07T07:09:57.534Z,47.70
2018-06-07T07:12:25.968Z,47.70
2018-06-07T07:14:54.467Z,47.70
2018-06-07T07:17:22.906Z,47.70
2018-06-07T07:19:51.376Z,47.50
2018-06-07T07:22:19.832Z,47.40
2018-06-07T07:24:48.303Z,47.30
2018-06-07T07:27:16.724Z,47.30
2018-06-07T07:29:45.237Z,47.20
2018-06-07T07:32:14.433Z,47.20
2018-06-07T07:34:42.929Z,47.20
2018-06-07T07:37:11.414Z,47.10
2018-06-07T07:39:39.875Z,47.00
2018-06-07T07:42:08.365Z,47.00
2018-06-07T07:44:36.791Z,47.00
2018-06-07T07:47:05.284Z,46.80
2018-06-07T07:49:33.757Z,46.80
2018-06-07T07:52:02.304Z,46.80
2018-06-07T07:56:58.971Z,46.60
2018-06-07T07:59:27.449Z,46.60
2018-06-07T08:01:55.960Z,46.60
2018-06-07T08:04:24.427Z,46.60
2018-06-07T08:06:52.924Z,46.60
2018-06-07T08:09:21.396Z,46.60
2018-06-07T08:11:49.911Z,46.60
2018-06-07T08:14:18.334Z,46.50
2018-06-07T08:16:46.803Z,46.50
2018-06-07T08:19:15.272Z,46.50
2018-06-07T08:21:43.757Z,46.40
2018-06-07T08:24:12.307Z,46.50
2018-06-07T08:26:40.792Z,46.40
2018-06-07T08:29:09.262Z,46.40
2018-06-07T08:31:37.747Z,46.40
2018-06-07T08:34:06.218Z,46.40
2018-06-07T08:36:34.712Z,46.30
2018-06-07T08:39:03.279Z,46.30
2018-06-07T08:41:31.718Z,46.30
2018-06-07T08:44:00.182Z,46.30
2018-06-07T08:46:28.632Z,46.20
2018-06-07T08:48:57.147Z,46.20
2018-06-07T08:51:25.695Z,46.20
2018-06-07T08:53:54.179Z,46.20
2018-06-07T08:56:22.669Z,46.20
2018-06-07T08:58:51.218Z,46.20
2018-06-07T09:01:19.720Z,46.10
2018-06-07T09:03:48.198Z,46.00
2018-06-07T09:06:16.705Z,45.90
2018-06-07T09:08:45.219Z,45.50
2018-06-07T09:11:13.692Z,45.60
2018-06-07T09:13:42.171Z,45.70
2018-06-07T09:16:10.718Z,45.80
2018-06-07T09:21:07.516Z,45.90
2018-06-07T09:23:35.986Z,45.90
2018-06-07T09:26:04.530Z,46.00
2018-06-07T09:28:32.979Z,45.80
2018-06-07T09:31:01.448Z,45.70
2018-06-07T09:33:29.926Z,45.60
2018-06-07T09:35:58.446Z,45.60
2018-06-07T09:38:26.878Z,45.60
2018-06-07T09:40:55.362Z,45.60
2018-06-07T09:43:23.791Z,45.40
2018-06-07T09:45:52.250Z,45.50
2018-06-07T09:48:20.742Z,45.40
2018-06-07T09:50:49.209Z,45.40
2018-06-07T09:55:45.791Z,45.30
2018-06-07T09:58:14.384Z,45.20
2018-06-07T10:00:42.817Z,45.10
2018-06-07T10:03:11.302Z,45.10
2018-06-07T10:05:39.759Z,45.00
2018-06-07T10:08:08.217Z,45.00
2018-06-07T10:10:36.672Z,44.90
2018-06-07T10:13:05.179Z,44.90
2018-06-07T10:15:33.632Z,45.60
2018-06-07T10:18:02.078Z,44.90
2018-06-07T10:20:31.179Z,44.80
2018-06-07T10:22:59.648Z,44.80
2018-06-07T10:25:28.200Z,44.70
2018-06-07T10:27:56.657Z,44.70
2018-06-07T10:30:25.155Z,44.50
2018-06-07T10:32:53.827Z,44.50
2018-06-07T10:35:22.331Z,45.20
2018-06-07T10:37:50.770Z,44.60
2018-06-07T10:40:19.233Z,44.60
2018-06-07T10:42:47.703Z,44.50
2018-06-07T10:45:16.205Z,44.40
2018-06-07T10:47:44.624Z,44.40
2018-06-07T10:50:13.133Z,44.40
2018-06-07T10:52:41.628Z,44.30
2018-06-07T10:55:10.142Z,44.20
2018-06-07T10:57:38.628Z,44.20
2018-06-07T11:00:07.131Z,44.30
2018-06-07T11:02:35.645Z,44.10
2018-06-07T11:05:04.181Z,44.20
2018-06-07T11:07:32.651Z,44.10
2018-06-07T11:10:01.157Z,44.10
2018-06-07T11:12:29.598Z,43.50
2018-06-07T11:14:58.154Z,43.90
2018-06-07T11:17:26.618Z,43.70
2018-06-07T11:19:55.084Z,43.80
2018-06-07T11:22:23.541Z,43.70
2018-06-07T11:24:52.036Z,43.70
2018-06-07T11:27:20.525Z,43.60
2018-06-07T11:29:48.996Z,43.70
2018-06-07T11:32:17.452Z,43.70
2018-06-07T11:34:45.942Z,43.60
2018-06-07T11:37:14.381Z,43.60
2018-06-07T11:39:42.850Z,43.50
2018-06-07T11:42:11.306Z,43.40
2018-06-07T11:44:39.786Z,43.50
2018-06-07T11:47:08.253Z,43.50
2018-06-07T11:49:36.761Z,43.40
2018-06-07T11:52:05.272Z,43.40
2018-06-07T11:54:33.744Z,43.30
2018-06-07T11:57:02.208Z,43.30
2018-06-07T11:59:30.703Z,43.30
2018-06-07T12:01:59.185Z,43.20
2018-06-07T12:04:27.668Z,43.10
2018-06-07T12:06:56.080Z,43.10
2018-06-07T12:09:24.579Z,43.10
2018-06-07T12:11:53.132Z,43.10
2018-06-07T12:14:21.602Z,43.10
2018-06-07T12:16:50.698Z,43.00
2018-06-07T12:19:19.678Z,43.00
2018-06-07T12:21:48.145Z,42.80
2018-06-07T12:24:16.615Z,42.80
2018-06-07T12:26:45.080Z,42.80
2018-06-07T12:29:13.873Z,42.80
2018-06-07T12:31:42.314Z,42.90
2018-06-07T12:34:10.809Z,42.90
2018-06-07T12:36:39.288Z,42.90
2018-06-07T12:39:08.708Z,42.80
2018-06-07T12:41:37.226Z,42.80
2018-06-07T12:44:05.678Z,42.70
2018-06-07T12:46:34.183Z,42.70
2018-06-07T12:49:02.713Z,42.70
2018-06-07T12:51:31.168Z,42.70
2018-06-07T12:53:59.588Z,42.70
2018-06-07T12:56:28.431Z,42.70
2018-06-07T12:58:56.918Z,42.70
2018-06-07T13:01:25.446Z,42.80
2018-06-07T13:03:53.931Z,42.80
2018-06-07T13:06:22.405Z,42.70
2018-06-07T13:08:50.839Z,42.70
2018-06-07T13:11:19.302Z,42.70
2018-06-07T13:13:47.735Z,42.60
2018-06-07T13:16:16.290Z,42.80
2018-06-07T13:21:12.873Z,42.50
2018-06-07T13:23:41.559Z,42.50
2018-06-07T13:26:10.018Z,42.50
2018-06-07T13:28:38.469Z,42.50
2018-06-07T13:31:07.054Z,42.40
2018-06-07T13:33:35.434Z,42.30
2018-06-07T13:36:03.873Z,42.20
2018-06-07T13:38:32.330Z,42.10
2018-06-07T13:41:00.753Z,42.20
2018-06-07T13:43:29.228Z,42.20
2018-06-07T13:45:57.673Z,42.10
2018-06-07T13:48:26.120Z,42.00
2018-06-07T13:50:54.622Z,42.00
2018-06-07T13:53:23.047Z,42.10
2018-06-07T13:55:51.491Z,42.10
2018-06-07T13:58:19.953Z,42.20
2018-06-07T14:00:48.516Z,42.00
2018-06-07T14:03:16.954Z,41.90
2018-06-07T14:05:45.380Z,42.00
2018-06-07T14:10:42.160Z,42.00
2018-06-07T14:13:10.607Z,41.90
2018-06-07T14:15:39.086Z,41.80
2018-06-07T14:18:07.529Z,41.80
2018-06-07T14:20:35.988Z,41.70
2018-06-07T14:23:04.432Z,41.70
2018-06-07T14:25:32.914Z,41.80
2018-06-07T14:28:01.377Z,41.70
2018-06-07T14:30:29.808Z,41.80
2018-06-07T14:32:58.498Z,41.80
2018-06-07T14:35:26.952Z,41.70
2018-06-07T14:37:55.858Z,41.70
2018-06-07T14:40:24.447Z,41.70
2018-06-07T14:42:53.142Z,41.70
2018-06-07T14:45:21.654Z,41.60
2018-06-07T14:47:50.071Z,41.60
2018-06-07T14:50:18.631Z,41.60
2018-06-07T14:52:47.039Z,41.60
2018-06-07T14:55:15.499Z,41.50
2018-06-07T14:57:43.934Z,41.60
2018-06-07T15:00:12.387Z,41.70
2018-06-07T15:02:40.854Z,41.60
2018-06-07T15:05:09.557Z,41.70
2018-06-07T15:07:38.051Z,41.50
2018-06-07T15:10:06.536Z,42.20
2018-06-07T15:12:35.005Z,41.60
2018-06-07T15:15:03.557Z,41.60
2018-06-07T15:17:32.015Z,41.50
2018-06-07T15:20:00.462Z,41.60
2018-06-07T15:22:28.906Z,41.50
2018-06-07T15:24:57.331Z,41.60
2018-06-07T15:29:53.891Z,41.40
2018-06-07T15:32:22.455Z,41.50
2018-06-07T15:34:50.896Z,41.50
2018-06-07T15:37:19.378Z,41.50
2018-06-07T15:39:47.815Z,41.50
2018-06-07T15:42:16.355Z,41.60
2018-06-07T15:44:44.816Z,41.60
2018-06-07T15:47:13.293Z,41.60
2018-06-07T15:49:41.774Z,41.70
2018-06-07T15:52:10.250Z,41.70
2018-06-07T15:54:38.735Z,41.70
2018-06-07T15:57:07.219Z,41.70
2018-06-07T15:59:35.714Z,41.80
2018-06-07T16:02:04.304Z,41.80
2018-06-07T16:04:32.773Z,41.80
2018-06-07T16:07:01.237Z,41.80
2018-06-07T16:09:29.704Z,42.10
2018-06-07T16:11:58.185Z,42.50
2018-06-07T16:14:26.624Z,41.90
2018-06-07T16:16:55.112Z,41.90
2018-06-07T16:19:23.588Z,42.00
2018-06-07T16:21:52.066Z,42.00
2018-06-07T16:24:20.549Z,42.10
2018-06-07T16:26:48.992Z,42.20
2018-06-07T16:29:17.480Z,42.20
2018-06-07T16:31:45.911Z,42.20
2018-06-07T16:34:14.423Z,42.20
2018-06-07T16:36:42.833Z,42.30
2018-06-07T16:39:11.475Z,42.40
2018-06-07T16:41:39.926Z,42.50
2018-06-07T16:44:08.395Z,42.50
2018-06-07T16:46:36.859Z,42.50
2018-06-07T16:49:05.316Z,42.50
2018-06-07T16:51:33.878Z,42.60
2018-06-07T16:54:02.525Z,42.60
2018-06-07T16:56:31.016Z,42.70
2018-06-07T16:58:59.520Z,42.70
2018-06-07T17:01:27.979Z,42.70
2018-06-07T17:03:56.455Z,42.70
2018-06-07T17:06:24.924Z,42.70
2018-06-07T17:08:53.384Z,42.70
2018-06-07T17:11:22.230Z,42.80
2018-06-07T17:13:50.686Z,42.70
2018-06-07T17:16:19.272Z,42.80
2018-06-07T17:18:47.779Z,43.50
2018-06-07T17:21:16.215Z,42.80
2018-06-07T17:23:44.712Z,42.80
2018-06-07T17:26:13.111Z,42.80
2018-06-07T17:28:41.869Z,42.80
2018-06-07T17:31:10.331Z,42.80
2018-06-07T17:33:38.805Z,42.80
2018-06-07T17:36:07.227Z,42.80
2018-06-07T17:38:35.740Z,42.80
2018-06-07T17:41:04.172Z,42.90
2018-06-07T17:43:32.661Z,42.80
2018-06-07T17:46:01.140Z,42.80
2018-06-07T17:48:29.640Z,42.80
2018-06-07T17:50:58.097Z,42.80
2018-06-07T17:53:26.588Z,42.80
2018-06-07T17:55:55.004Z,42.90
2018-06-07T17:58:23.461Z,42.90
2018-06-07T18:00:51.919Z,43.00
2018-06-07T18:03:20.321Z,43.10
2018-06-07T18:05:48.804Z,43.10
2018-06-07T18:08:17.228Z,43.10
2018-06-07T18:10:45.748Z,43.20
2018-06-07T18:13:14.433Z,43.30
2018-06-07T18:15:43.078Z,43.40
2018-06-07T18:18:11.642Z,43.40
2018-06-07T18:20:40.080Z,43.30
2018-06-07T18:23:08.465Z,43.30
2018-06-07T18:25:36.918Z,43.20
2018-06-07T18:28:05.376Z,43.20
2018-06-07T18:30:33.862Z,43.20
2018-06-07T18:33:02.339Z,43.30
2018-06-07T18:35:30.813Z,43.30
2018-06-07T18:37:59.246Z,43.40
2018-06-07T18:40:27.662Z,43.40
2018-06-07T18:42:56.146Z,43.40
2018-06-07T18:45:25.423Z,43.40
2018-06-07T18:47:53.872Z,43.60
2018-06-07T18:50:22.353Z,43.60
2018-06-07T18:52:50.822Z,43.60
2018-06-07T18:55:19.288Z,43.60
2018-06-07T18:57:47.753Z,43.60
2018-06-07T19:00:16.170Z,43.60
2018-06-07T19:02:44.650Z,43.70
2018-06-07T19:05:13.112Z,43.70
2018-06-07T19:07:41.531Z,43.90
2018-06-07T19:10:12.132Z,44.10
2018-06-07T19:12:40.571Z,44.10
2018-06-07T19:15:13.265Z,44.40
2018-06-07T19:17:41.871Z,44.60
2018-06-07T19:20:15.688Z,44.60
2018-06-07T19:22:44.154Z,44.80
2018-06-07T19:25:18.078Z,45.00
2018-06-07T19:27:46.630Z,45.10
2018-06-07T19:30:15.150Z,45.20
2018-06-07T19:32:49.069Z,45.40
2018-06-07T19:35:18.299Z,45.50
2018-06-07T19:37:46.767Z,45.60
2018-06-07T19:40:20.470Z,45.80
2018-06-07T19:42:48.915Z,45.90
2018-06-07T19:45:17.310Z,46.10
2018-06-07T19:47:45.792Z,46.20
2018-06-07T19:50:14.218Z,46.50
2018-06-07T19:52:42.721Z,46.50
2018-06-07T19:55:11.130Z,46.40
2018-06-07T19:57:39.546Z,46.30
2018-06-07T20:00:08.354Z,46.80
2018-06-07T20:02:36.785Z,47.10
2018-06-07T20:05:05.439Z,47.10
2018-06-07T20:07:33.865Z,47.30
2018-06-07T20:10:02.323Z,47.40
2018-06-07T20:12:30.730Z,47.50
2018-06-07T20:14:59.178Z,47.60
2018-06-07T20:17:30.220Z,47.70
2018-06-07T20:19:59.233Z,47.90
2018-06-07T20:22:27.707Z,47.90
2018-06-07T20:24:56.679Z,48.00
2018-06-07T20:27:25.087Z,48.00
2018-06-07T20:29:53.906Z,48.20
2018-06-07T20:32:22.331Z,48.30
2018-06-07T20:34:50.783Z,48.40
2018-06-07T20:37:19.201Z,48.30
2018-06-07T20:39:47.649Z,48.40
2018-06-07T20:42:16.046Z,48.40
2018-06-07T20:44:44.515Z,48.50
2018-06-07T20:49:41.079Z,49.20
2018-06-07T20:52:09.520Z,48.70
2018-06-07T20:54:37.938Z,48.70
2018-06-07T20:57:06.361Z,48.80
2018-06-07T20:59:34.842Z,48.90
2018-06-07T21:02:03.265Z,48.90
2018-06-07T21:04:31.697Z,49.00
2018-06-07T21:07:00.439Z,49.10
2018-06-07T21:09:28.870Z,49.10
2018-06-07T21:11:57.281Z,49.30
2018-06-07T21:14:25.718Z,49.40
2018-06-07T21:16:54.151Z,49.40
2018-06-07T21:19:22.663Z,49.40
2018-06-07T21:21:51.132Z,49.50
2018-06-07T21:24:19.581Z,49.70
2018-06-07T21:26:48.182Z,49.80
2018-06-07T21:29:16.636Z,49.80
2018-06-07T21:31:45.133Z,49.80
2018-06-07T21:34:13.587Z,50.00
2018-06-07T21:36:42.033Z,49.90
2018-06-07T21:39:10.495Z,50.00
2018-06-07T21:41:38.955Z,50.00
2018-06-07T21:44:07.473Z,50.00
2018-06-07T21:46:35.907Z,50.00
2018-06-07T21:49:04.400Z,50.30
2018-06-07T21:51:32.821Z,50.30
2018-06-07T21:54:01.505Z,50.40
2018-06-07T21:56:30.728Z,50.30
2018-06-07T21:58:59.265Z,50.50
2018-06-07T22:01:27.732Z,51.10
2018-06-07T22:03:56.604Z,50.60
2018-06-07T22:06:25.248Z,50.60
2018-06-07T22:08:53.785Z,50.60
2018-06-07T22:11:22.242Z,50.70
2018-06-07T22:13:51.355Z,50.80
2018-06-07T22:16:20.048Z,50.80
2018-06-07T22:18:48.618Z,50.90
2018-06-07T22:21:17.169Z,50.90
2018-06-07T22:23:45.725Z,50.90
2018-06-07T22:26:16.068Z,51.00
2018-06-07T22:28:44.767Z,51.00
2018-06-07T22:31:14.799Z,51.10
2018-06-07T22:33:43.954Z,51.20
2018-06-07T22:36:12.682Z,51.30
2018-06-07T22:38:41.209Z,51.30
2018-06-07T22:41:09.801Z,52.00
2018-06-07T22:43:38.299Z,51.40
2018-06-07T22:46:07.779Z,51.50
2018-06-07T22:48:38.577Z,51.40
2018-06-07T22:51:07.107Z,51.50
2018-06-07T22:53:35.635Z,51.80
2018-06-07T22:56:04.236Z,51.70
2018-06-07T22:58:32.716Z,51.70
2018-06-07T23:01:01.693Z,51.80
2018-06-07T23:03:35.073Z,51.70
2018-06-07T23:06:04.550Z,51.70
2018-06-07T23:08:33.101Z,51.90
2018-06-07T23:11:01.572Z,52.00
2018-06-07T23:13:30.177Z,52.10
2018-06-07T23:16:00.487Z,52.20
2018-06-07T23:18:29.271Z,52.20
2018-06-07T23:20:57.817Z,52.90
2018-06-07T23:23:26.392Z,52.40
2018-06-07T23:25:54.937Z,52.50
2018-06-07T23:28:23.643Z,52.40
2018-06-07T23:30:52.099Z,52.30
2018-06-07T23:33:20.755Z,52.30
2018-06-07T23:35:49.337Z,52.30
2018-06-07T23:38:17.893Z,52.30
2018-06-07T23:40:46.404Z,52.50
2018-06-07T23:43:15.067Z,52.60
2018-06-07T23:45:43.655Z,52.60
2018-06-07T23:48:12.198Z,52.70
2018-06-07T23:50:40.706Z,52.70
2018-06-07T23:53:09.255Z,52.70
2018-06-07T23:55:37.781Z,52.80
2018-06-07T23:58:06.356Z,52.90
